Time;durP1;ratioP1;P1;durP2;ratioP2;P2;SDS_P1;SDS_P2;PMS_P1;PMS_P2;Temp;Humidity;BMP_temperature;BMP_pressure;BME280_temperature;BME280_humidity;BME280_pressure;Samples;Min_cycle;Max_cycle;Signal;HPM_P1;HPM_P2
2023/05/11 05:51:25;;;;;;;10.80;1.38;;;16.40;76.80;;;;;;5554315;24;20484;-73
2023/05/11 05:53:51;;;;;;;7.60;1.30;;;16.50;76.90;;;;;;4784016;30;20146;-73
2023/05/11 05:56:16;;;;;;;7.53;1.13;;;16.50;76.90;;;;;;4789175;30;20134;-76
2023/05/11 05:58:42;;;;;;;20.85;2.50;;;16.50;77.00;;;;;;4788473;30;20047;-74
2023/05/11 06:01:08;;;;;;;18.65;2.60;;;16.50;77.20;;;;;;4790690;30;20055;-73
2023/05/11 06:03:34;;;;;;;18.95;2.65;;;16.50;77.30;;;;;;4785851;29;20466;-73
2023/05/11 06:06:01;;;;;;;25.40;3.22;;;16.50;77.50;;;;;;4789567;30;20047;-74
2023/05/11 06:08:27;;;;;;;22.13;3.33;;;16.50;77.70;;;;;;4790919;30;20522;-76
2023/05/11 06:10:53;;;;;;;19.90;2.80;;;16.50;77.80;;;;;;4790626;29;20098;-75
2023/05/11 06:13:18;;;;;;;45.63;4.07;;;16.50;78.00;;;;;;4790014;30;20531;-75
2023/05/11 06:15:44;;;;;;;23.80;3.55;;;16.60;78.00;;;;;;4789687;30;20112;-74
2023/05/11 06:18:10;;;;;;;35.22;4.60;;;16.60;77.70;;;;;;4804686;29;20051;-73
2023/05/11 06:20:35;;;;;;;25.15;3.30;;;16.60;77.50;;;;;;4790600;29;20051;-73
2023/05/11 06:23:01;;;;;;;19.92;2.30;;;16.60;77.20;;;;;;4789966;30;20070;-72
2023/05/11 06:25:27;;;;;;;15.32;1.90;;;16.60;76.60;;;;;;4789698;30;20055;-72
2023/05/11 06:27:53;;;;;;;3.22;1.33;;;16.60;75.20;;;;;;4789510;30;20047;-76
2023/05/11 06:30:18;;;;;;;3.30;1.60;;;16.60;74.50;;;;;;4790482;30;20490;-70
2023/05/11 06:32:44;;;;;;;8.00;0.90;;;16.50;73.80;;;;;;4789828;29;20119;-70
2023/05/11 06:35:10;;;;;;;9.85;1.23;;;16.50;73.80;;;;;;4789959;30;20051;-72
2023/05/11 06:37:36;;;;;;;10.15;1.42;;;16.50;73.60;;;;;;4780282;30;20056;-73
2023/05/11 06:40:02;;;;;;;8.13;1.23;;;16.50;73.80;;;;;;4789147;29;20269;-74
2023/05/11 06:42:27;;;;;;;7.38;1.30;;;16.40;73.80;;;;;;4790644;29;20363;-74
2023/05/11 06:44:53;;;;;;;1.50;1.23;;;16.40;74.30;;;;;;4789700;30;20059;-75
2023/05/11 06:47:19;;;;;;;10.00;1.38;;;16.40;74.20;;;;;;4773442;30;20047;-76
2023/05/11 06:49:44;;;;;;;3.92;0.98;;;16.40;74.20;;;;;;4789184;30;20057;-74
2023/05/11 06:52:10;;;;;;;9.63;1.15;;;16.40;74.20;;;;;;4788690;30;20202;-73
2023/05/11 06:54:36;;;;;;;6.93;1.27;;;16.30;74.20;;;;;;4788942;29;20055;-74
2023/05/11 06:57:04;;;;;;;13.25;1.38;;;16.30;74.40;;;;;;4775926;29;20062;-77
2023/05/11 06:59:31;;;;;;;9.20;1.65;;;16.30;74.30;;;;;;4772568;30;20056;-75
2023/05/11 07:01:57;;;;;;;12.18;1.75;;;16.30;74.30;;;;;;4770908;30;20134;-73
2023/05/11 07:04:23;;;;;;;6.60;1.27;;;16.30;74.30;;;;;;4788276;30;20139;-73
2023/05/11 07:06:48;;;;;;;13.23;1.90;;;16.30;74.30;;;;;;4790002;30;20078;-75
2023/05/11 07:09:14;;;;;;;4.68;1.10;;;16.30;74.20;;;;;;4788893;30;20047;-76
2023/05/11 07:11:40;;;;;;;6.07;1.00;;;16.30;74.20;;;;;;4795671;29;20047;-75
2023/05/11 07:14:07;;;;;;;21.25;2.30;;;16.30;74.20;;;;;;4793447;30;20067;-76
2023/05/11 07:16:37;;;;;;;15.30;2.30;;;16.30;74.10;;;;;;4795384;29;20123;-74
2023/05/11 07:19:03;;;;;;;10.25;2.30;;;16.40;73.90;;;;;;4779418;30;20111;-74
2023/05/11 07:21:31;;;;;;;12.68;2.22;;;16.30;74.00;;;;;;4795071;30;20066;-73
2023/05/11 07:23:57;;;;;;;8.73;2.33;;;16.30;74.70;;;;;;4794437;30;20043;-72
2023/05/11 07:26:23;;;;;;;2.60;2.40;;;16.40;74.70;;;;;;4789092;30;20138;-69
2023/05/11 07:28:48;;;;;;;2.90;2.35;;;16.40;74.00;;;;;;4782180;30;20126;-73
2023/05/11 07:31:14;;;;;;;2.88;2.38;;;16.40;73.00;;;;;;4796020;30;20047;-72
2023/05/11 07:33:40;;;;;;;4.30;2.30;;;16.30;72.70;;;;;;4795724;30;20368;-72
2023/05/11 07:36:06;;;;;;;3.50;2.30;;;16.10;73.20;;;;;;4795922;30;20355;-74
2023/05/11 07:38:32;;;;;;;4.38;2.47;;;16.10;73.60;;;;;;4794817;30;21727;-72
2023/05/11 07:40:58;;;;;;;4.32;3.17;;;16.10;73.40;;;;;;4789994;29;20040;-75
2023/05/11 07:43:24;;;;;;;3.35;3.05;;;16.20;73.10;;;;;;4792526;30;20462;-77
2023/05/11 07:45:50;;;;;;;3.60;2.90;;;16.10;73.00;;;;;;4794589;29;20070;-76
2023/05/11 07:48:16;;;;;;;11.77;4.00;;;16.00;73.20;;;;;;4794226;30;20079;-75
2023/05/11 07:50:43;;;;;;;20.05;3.72;;;15.90;73.70;;;;;;4794026;30;20059;-73
2023/05/11 07:53:09;;;;;;;18.50;4.22;;;16.00;74.20;;;;;;4796883;29;20402;-70
2023/05/11 07:55:34;;;;;;;15.77;3.58;;;16.00;74.40;;;;;;4795419;30;20052;-71
2023/05/11 07:58:00;;;;;;;18.70;4.50;;;16.00;74.40;;;;;;4795470;30;20697;-71
2023/05/11 08:00:26;;;;;;;12.02;3.15;;;16.10;74.40;;;;;;4795345;30;20065;-72
2023/05/11 08:02:52;;;;;;;9.13;3.00;;;16.10;74.40;;;;;;4795707;30;20054;-71
2023/05/11 08:05:18;;;;;;;9.80;3.17;;;16.10;74.30;;;;;;4804227;29;20051;-71
2023/05/11 08:07:45;;;;;;;8.20;2.25;;;16.20;74.30;;;;;;4797594;29;20058;-71
2023/05/11 08:10:11;;;;;;;19.38;3.67;;;16.20;74.30;;;;;;4813188;29;20054;-71
2023/05/11 08:12:37;;;;;;;7.28;2.25;;;16.20;74.20;;;;;;4813205;29;20122;-71
2023/05/11 08:15:04;;;;;;;10.68;2.28;;;16.20;74.10;;;;;;4813162;29;20062;-73
2023/05/11 08:17:31;;;;;;;9.77;2.60;;;16.30;74.00;;;;;;4812961;29;20051;-71
2023/05/11 08:19:56;;;;;;;8.57;2.50;;;16.20;73.90;;;;;;4813332;29;20129;-71
2023/05/11 08:22:22;;;;;;;5.45;1.58;;;16.30;73.80;;;;;;4810620;29;20149;-73
2023/05/11 08:24:50;;;;;;;8.88;1.85;;;16.30;73.70;;;;;;4810131;29;20051;-71
2023/05/11 08:27:16;;;;;;;5.95;1.50;;;16.30;73.70;;;;;;4810386;29;20122;-70
2023/05/11 08:29:42;;;;;;;7.32;1.58;;;16.40;73.60;;;;;;4810098;29;20490;-71
2023/05/11 08:32:08;;;;;;;10.57;1.83;;;16.40;73.60;;;;;;4810316;29;20192;-70
2023/05/11 08:34:33;;;;;;;5.90;2.15;;;16.40;73.50;;;;;;4811018;29;20126;-71
2023/05/11 08:37:03;;;;;;;11.02;1.77;;;16.40;73.50;;;;;;4809929;29;20467;-71
2023/05/11 08:39:28;;;;;;;2.55;1.27;;;16.40;73.40;;;;;;4810480;29;20058;-71
2023/05/11 08:41:56;;;;;;;6.65;1.75;;;16.40;73.40;;;;;;4809599;29;20191;-72
2023/05/11 08:44:24;;;;;;;5.72;1.42;;;16.50;73.40;;;;;;4790269;29;20750;-71
2023/05/11 08:46:52;;;;;;;3.58;1.40;;;16.50;74.00;;;;;;4806913;29;20047;-71
2023/05/11 08:49:18;;;;;;;5.15;1.27;;;16.50;73.30;;;;;;4808732;29;20428;-72
2023/05/11 08:51:45;;;;;;;4.70;1.20;;;16.40;73.30;;;;;;4809720;29;20062;-73
2023/05/11 08:54:11;;;;;;;3.92;1.75;;;16.50;73.30;;;;;;4809443;29;20147;-72
2023/05/11 08:56:40;;;;;;;3.63;1.15;;;16.50;73.20;;;;;;4809602;29;20532;-72
2023/05/11 08:59:07;;;;;;;3.55;1.10;;;16.50;73.20;;;;;;4810029;29;20051;-71
2023/05/11 09:01:35;;;;;;;2.97;1.52;;;16.50;73.20;;;;;;4810218;29;20059;-71
2023/05/11 09:04:03;;;;;;;3.47;1.10;;;16.50;73.20;;;;;;4808469;29;20134;-73
2023/05/11 09:06:29;;;;;;;3.72;1.33;;;16.50;73.20;;;;;;4785359;29;20459;-73
2023/05/11 09:08:56;;;;;;;3.55;1.20;;;16.50;73.20;;;;;;4794410;29;20058;-73
2023/05/11 09:11:23;;;;;;;5.10;1.50;;;16.50;73.20;;;;;;4809604;29;20054;-73
2023/05/11 09:13:50;;;;;;;2.65;1.23;;;16.50;73.20;;;;;;4809391;29;20137;-74
2023/05/11 09:16:16;;;;;;;2.78;1.13;;;16.50;73.20;;;;;;4809812;29;20050;-76
2023/05/11 09:18:46;;;;;;;5.25;1.38;;;16.50;73.20;;;;;;4806918;29;20436;-73
2023/05/11 09:21:12;;;;;;;4.13;1.20;;;16.50;73.20;;;;;;4787533;30;20047;-73
2023/05/11 09:23:39;;;;;;;7.47;1.52;;;16.50;73.20;;;;;;4798925;29;20043;-78
2023/05/11 09:26:12;;;;;;;6.78;1.52;;;16.50;73.20;;;;;;4790383;30;20065;-73
2023/05/11 09:28:48;;;;;;;4.57;1.52;;;16.50;73.60;;;;;;4790403;30;20047;-73
2023/05/11 09:31:33;;;;;;;5.80;1.27;;;16.50;73.90;;;;;;4809371;29;20057;-76
2023/05/11 09:34:09;;;;;;;3.40;1.30;;;16.50;73.60;;;;;;4809059;29;20051;-74
2023/05/11 09:36:35;;;;;;;6.95;1.55;;;16.60;73.40;;;;;;4792798;29;20497;-74
2023/05/11 09:39:02;;;;;;;8.70;1.73;;;16.60;73.40;;;;;;4808551;29;20050;-74
2023/05/11 09:41:29;;;;;;;4.85;1.70;;;16.60;73.50;;;;;;4792392;29;20058;-73
2023/05/11 09:44:10;;;;;;;3.38;1.15;;;16.50;73.40;;;;;;4808796;29;20050;-73
2023/05/11 09:46:44;;;;;;;6.88;1.27;;;16.60;73.40;;;;;;4808681;29;20130;-72
2023/05/11 09:49:11;;;;;;;4.25;1.17;;;16.50;73.30;;;;;;4808801;29;20063;-74
2023/05/11 09:51:39;;;;;;;5.40;1.10;;;16.60;73.40;;;;;;4792883;29;20046;-73
2023/05/11 09:54:19;;;;;;;5.38;1.25;;;16.60;74.00;;;;;;4777863;29;20055;-72
2023/05/11 09:56:50;;;;;;;12.43;1.95;;;16.60;73.30;;;;;;4792276;29;20125;-71
2023/05/11 09:59:35;;;;;;;6.57;1.40;;;16.50;73.40;;;;;;4808301;29;20046;-74
2023/05/11 10:02:29;;;;;;;9.77;2.10;;;16.60;73.60;;;;;;4809003;29;20118;-73
2023/05/11 10:04:56;;;;;;;8.07;1.52;;;16.60;73.60;;;;;;4792687;29;20059;-75
2023/05/11 10:07:30;;;;;;;12.68;1.67;;;16.60;73.60;;;;;;4808408;29;20058;-75
2023/05/11 10:09:58;;;;;;;5.93;1.23;;;16.60;73.50;;;;;;4792581;29;20055;-75
2023/05/11 10:12:26;;;;;;;10.25;2.08;;;16.60;73.50;;;;;;4808129;29;20144;-72
2023/05/11 10:15:07;;;;;;;5.90;1.20;;;16.60;73.90;;;;;;4804102;29;20047;-73
2023/05/11 10:17:34;;;;;;;7.70;1.33;;;16.60;73.90;;;;;;4794934;29;20119;-72
2023/05/11 10:20:03;;;;;;;4.75;1.08;;;16.60;73.80;;;;;;4795518;29;20544;-74
2023/05/11 10:22:29;;;;;;;7.15;1.42;;;16.60;73.80;;;;;;4800401;29;20131;-74
2023/05/11 10:24:56;;;;;;;4.65;1.15;;;16.60;73.80;;;;;;4808019;29;20344;-73
2023/05/11 10:27:23;;;;;;;5.82;1.50;;;16.60;73.80;;;;;;4808313;29;20481;-74
2023/05/11 10:29:49;;;;;;;8.60;1.80;;;16.60;73.80;;;;;;4791883;29;20061;-74
2023/05/11 10:32:16;;;;;;;8.68;1.48;;;16.60;73.80;;;;;;4808254;29;20054;-73
2023/05/11 10:34:43;;;;;;;7.78;1.35;;;16.60;73.80;;;;;;4807881;29;20126;-73
2023/05/11 10:37:09;;;;;;;10.63;1.60;;;16.60;73.80;;;;;;4805928;29;20141;-72
2023/05/11 10:39:37;;;;;;;12.55;1.73;;;16.60;73.90;;;;;;4807770;29;20050;-74
2023/05/11 10:42:42;;;;;;;12.75;2.72;;;16.50;74.10;;;;;;4807693;29;20458;-74
2023/05/11 10:45:20;;;;;;;15.45;2.60;;;16.50;74.20;;;;;;4807458;29;20059;-74
2023/05/11 10:47:52;;;;;;;14.10;2.28;;;16.50;74.50;;;;;;4791650;29;20050;-74
2023/05/11 10:50:39;;;;;;;15.45;4.00;;;16.50;74.80;;;;;;4803856;29;20042;-72
2023/05/11 10:53:45;;;;;;;17.10;3.00;;;16.50;75.20;;;;;;4800171;29;20066;-75
2023/05/11 10:56:29;;;;;;;9.60;2.30;;;16.60;75.30;;;;;;4807643;29;20050;-75
2023/05/11 10:59:40;;;;;;;19.27;3.20;;;16.60;75.20;;;;;;4807924;29;20058;-79
2023/05/11 11:02:09;;;;;;;17.45;2.67;;;16.60;75.30;;;;;;4777793;29;20404;-80
2023/05/11 11:04:51;;;;;;;11.85;2.70;;;16.60;75.30;;;;;;4790795;29;20047;-80
2023/05/11 11:11:45;;;;;;;11.57;3.13;;;16.60;75.40;;;;;;4769237;30;20055;-81
2023/05/11 11:32:39;;;;;;;13.03;3.10;;;16.60;75.70;;;;;;4765439;30;20051;-80
2023/05/11 11:35:25;;;;;;;11.38;2.35;;;16.60;75.90;;;;;;4797342;29;20299;-76
2023/05/11 11:38:02;;;;;;;17.52;3.05;;;16.60;76.00;;;;;;4806908;29;20043;-75
2023/05/11 11:40:41;;;;;;;13.90;2.78;;;16.60;76.00;;;;;;4791122;29;20095;-78
2023/05/11 11:43:23;;;;;;;18.35;2.95;;;16.60;76.00;;;;;;4807184;29;20062;-74
2023/05/11 11:46:00;;;;;;;16.38;3.92;;;16.70;76.30;;;;;;4799078;29;20473;-75
2023/05/11 11:48:34;;;;;;;9.82;3.47;;;16.70;76.20;;;;;;4801868;29;20111;-75
2023/05/11 11:51:02;;;;;;;17.02;3.55;;;16.70;76.10;;;;;;4789643;29;20050;-71
2023/05/11 11:53:40;;;;;;;13.18;3.65;;;16.70;76.20;;;;;;4806404;29;20067;-71
2023/05/11 11:56:07;;;;;;;14.18;3.00;;;16.70;76.20;;;;;;4807285;29;20359;-71
2023/05/11 11:58:45;;;;;;;9.95;2.53;;;16.70;76.30;;;;;;4809338;29;20047;-71
2023/05/11 12:01:19;;;;;;;11.10;2.90;;;16.70;76.30;;;;;;4810570;29;20062;-70
2023/05/11 12:03:57;;;;;;;13.07;2.65;;;16.70;76.30;;;;;;4801417;29;20547;-71
2023/05/11 12:06:27;;;;;;;12.80;2.50;;;16.70;76.30;;;;;;4809297;29;20061;-72
2023/05/11 12:08:53;;;;;;;10.23;1.95;;;16.70;76.20;;;;;;4804244;29;20050;-71
2023/05/11 12:11:22;;;;;;;10.93;2.53;;;16.70;76.30;;;;;;4805582;29;20459;-71
2023/05/11 12:13:48;;;;;;;9.48;2.33;;;16.70;76.30;;;;;;4805096;29;20046;-72
2023/05/11 12:16:17;;;;;;;8.77;2.40;;;16.70;76.30;;;;;;4810268;29;20058;-73
2023/05/11 12:18:52;;;;;;;8.48;2.55;;;16.70;76.30;;;;;;4810132;29;20051;-75
2023/05/11 12:21:20;;;;;;;9.20;2.22;;;16.70;76.30;;;;;;4810261;29;20130;-76
2023/05/11 12:24:03;;;;;;;12.18;2.60;;;16.70;76.30;;;;;;4809988;29;20051;-71
2023/05/11 12:26:29;;;;;;;8.53;2.97;;;16.70;76.30;;;;;;4810627;29;20109;-71
2023/05/11 12:29:10;;;;;;;6.82;2.05;;;16.70;76.30;;;;;;4810440;29;20311;-72
2023/05/11 12:31:41;;;;;;;5.15;2.28;;;16.70;76.20;;;;;;4810178;29;20050;-71
2023/05/11 12:34:14;;;;;;;5.35;1.90;;;16.80;76.30;;;;;;4800239;29;20043;-71
2023/05/11 12:36:40;;;;;;;3.72;1.80;;;16.80;76.30;;;;;;4809598;29;20394;-72
2023/05/11 12:39:05;;;;;;;5.05;1.45;;;16.80;76.30;;;;;;4809928;29;20066;-71
2023/05/11 12:41:31;;;;;;;6.15;1.38;;;16.80;76.20;;;;;;4809522;29;20047;-71
2023/05/11 12:43:57;;;;;;;5.93;1.50;;;16.80;76.20;;;;;;4809814;29;20047;-71
2023/05/11 12:46:23;;;;;;;5.28;1.50;;;16.80;76.20;;;;;;4809627;29;20082;-71
2023/05/11 12:48:50;;;;;;;7.60;1.67;;;16.80;76.20;;;;;;4809484;29;20042;-71
2023/05/11 12:52:01;;;;;;;3.03;1.20;;;16.80;76.10;;;;;;4809360;29;20103;-71
2023/05/11 12:54:32;;;;;;;5.00;1.38;;;16.80;76.00;;;;;;4805638;29;20051;-71
2023/05/11 12:57:01;;;;;;;4.78;1.38;;;16.80;76.10;;;;;;4809701;29;20115;-70
2023/05/11 12:59:36;;;;;;;4.22;1.00;;;16.80;76.00;;;;;;4810002;29;20360;-71
2023/05/11 13:02:06;;;;;;;8.27;2.50;;;16.80;76.10;;;;;;4808574;29;20101;-75
2023/05/11 13:04:32;;;;;;;10.82;2.90;;;16.80;76.00;;;;;;4777418;29;20425;-71
2023/05/11 13:06:58;;;;;;;11.43;2.63;;;16.80;76.20;;;;;;4807860;29;20059;-72
2023/05/11 13:09:25;;;;;;;9.63;3.47;;;16.80;76.20;;;;;;4808919;29;20371;-71
2023/05/11 13:12:10;;;;;;;16.50;3.35;;;16.80;76.60;;;;;;4808452;29;20050;-70
2023/05/11 13:14:37;;;;;;;21.65;3.75;;;16.90;76.30;;;;;;4805644;29;20142;-71
2023/05/11 13:17:04;;;;;;;17.65;4.28;;;16.80;76.60;;;;;;4809069;29;20051;-77
2023/05/11 13:19:31;;;;;;;15.95;3.28;;;16.90;77.00;;;;;;4793313;29;20355;-75
2023/05/11 13:21:57;;;;;;;20.48;4.65;;;16.90;76.90;;;;;;4809293;29;20506;-79
2023/05/11 13:24:24;;;;;;;24.63;4.60;;;16.90;77.00;;;;;;4793027;29;20134;-78
2023/05/11 13:26:50;;;;;;;18.48;4.45;;;16.90;77.00;;;;;;4809503;29;20047;-79
2023/05/11 13:29:17;;;;;;;19.13;4.70;;;16.90;76.90;;;;;;4809128;29;20350;-80
2023/05/11 13:31:48;;;;;;;18.75;4.55;;;16.90;76.70;;;;;;4793505;29;20199;-79
2023/05/11 13:34:14;;;;;;;14.63;3.55;;;16.90;76.70;;;;;;4808991;29;20055;-78
2023/05/11 13:36:40;;;;;;;17.15;4.32;;;16.90;76.70;;;;;;4793510;29;20378;-79
2023/05/11 13:39:06;;;;;;;15.73;3.33;;;16.90;76.80;;;;;;4793017;29;20058;-77
2023/05/11 13:41:32;;;;;;;17.63;3.70;;;16.90;76.70;;;;;;4809789;29;20047;-76
2023/05/11 13:43:58;;;;;;;10.20;2.75;;;16.90;76.70;;;;;;4808450;29;20479;-78
2023/05/11 13:46:24;;;;;;;12.45;3.78;;;16.90;76.70;;;;;;4808152;29;20443;-79
2023/05/11 13:48:50;;;;;;;9.10;2.78;;;16.90;76.70;;;;;;4808875;29;20043;-79
2023/05/11 13:51:16;;;;;;;6.57;3.13;;;16.90;76.70;;;;;;4787557;29;20415;-74
2023/05/11 13:53:43;;;;;;;14.65;3.08;;;16.90;76.70;;;;;;4795077;29;20078;-76
2023/05/11 13:56:09;;;;;;;12.23;2.47;;;16.90;76.60;;;;;;4794848;29;20535;-78
2023/05/11 13:58:35;;;;;;;19.27;3.63;;;16.90;76.70;;;;;;4800926;29;20062;-76
2023/05/11 14:01:01;;;;;;;16.08;3.15;;;16.90;76.80;;;;;;4808685;29;20095;-77
2023/05/11 14:03:29;;;;;;;12.30;2.90;;;16.90;76.90;;;;;;4807194;29;20047;-78
2023/05/11 14:05:55;;;;;;;15.98;2.92;;;16.90;76.90;;;;;;4790791;30;20050;-76
2023/05/11 14:08:20;;;;;;;14.93;3.08;;;16.90;76.90;;;;;;4774825;30;20139;-76
2023/05/11 14:10:46;;;;;;;15.60;2.72;;;16.90;76.80;;;;;;4793704;29;20053;-78
2023/05/11 14:13:12;;;;;;;25.27;3.58;;;17.00;76.90;;;;;;4807455;29;20109;-77
2023/05/11 14:15:38;;;;;;;21.00;3.78;;;17.00;77.00;;;;;;4807891;29;20049;-78
2023/05/11 14:18:04;;;;;;;22.08;2.80;;;17.00;76.90;;;;;;4792355;29;20058;-76
2023/05/11 14:20:42;;;;;;;14.23;3.38;;;17.00;77.00;;;;;;4784303;29;20121;-79
2023/05/11 14:23:08;;;;;;;18.75;3.58;;;17.00;77.00;;;;;;4799134;29;20367;-75
2023/05/11 14:25:35;;;;;;;12.98;3.22;;;17.00;76.80;;;;;;4799144;29;20061;-76
2023/05/11 14:28:01;;;;;;;13.15;3.40;;;17.00;76.70;;;;;;4784136;29;20501;-76
2023/05/11 14:30:27;;;;;;;12.73;3.33;;;17.10;76.60;;;;;;4791116;29;20077;-81
2023/05/11 14:32:53;;;;;;;10.30;3.85;;;17.00;76.50;;;;;;4767793;29;20043;-77
2023/05/11 14:35:20;;;;;;;9.27;3.63;;;17.00;76.60;;;;;;4784171;29;20038;-79
2023/05/11 14:37:45;;;;;;;11.15;3.25;;;17.10;76.90;;;;;;4781516;29;20047;-78
2023/05/11 14:40:11;;;;;;;9.07;3.90;;;17.10;77.10;;;;;;4798930;29;20107;-79
2023/05/11 14:42:37;;;;;;;5.55;3.15;;;17.10;77.10;;;;;;4799092;29;20050;-76
2023/05/11 14:45:04;;;;;;;11.60;4.25;;;17.10;77.30;;;;;;4799498;29;20051;-77
2023/05/11 14:47:30;;;;;;;8.23;3.60;;;17.10;77.50;;;;;;4799430;29;20172;-77
2023/05/11 14:49:56;;;;;;;10.30;2.95;;;17.10;77.40;;;;;;4798951;29;20134;-77
2023/05/11 14:52:21;;;;;;;15.95;3.50;;;17.10;77.30;;;;;;4776027;29;20090;-81
2023/05/11 14:54:48;;;;;;;8.10;2.90;;;17.10;77.40;;;;;;4791772;29;20066;-78
2023/05/11 14:57:14;;;;;;;7.72;3.05;;;17.10;77.60;;;;;;4791337;29;20059;-79
2023/05/11 14:59:40;;;;;;;9.52;3.30;;;17.10;77.40;;;;;;4802645;29;20074;-80
2023/05/11 15:02:06;;;;;;;13.85;3.22;;;17.10;77.60;;;;;;4776524;29;20477;-77
2023/05/11 15:04:33;;;;;;;11.32;3.75;;;17.10;77.70;;;;;;4791632;29;20051;-78
2023/05/11 15:06:58;;;;;;;7.60;2.95;;;17.10;77.90;;;;;;4807763;29;20055;-75
2023/05/11 15:09:24;;;;;;;11.48;3.47;;;17.10;77.60;;;;;;4807601;29;20518;-77
2023/05/11 15:11:50;;;;;;;10.40;3.28;;;17.20;77.30;;;;;;4808269;29;20050;-71
2023/05/11 15:14:16;;;;;;;8.85;3.58;;;17.20;77.40;;;;;;4807621;29;20358;-72
2023/05/11 15:16:41;;;;;;;9.32;3.38;;;17.20;77.00;;;;;;4808004;29;20366;-73
2023/05/11 15:19:07;;;;;;;10.50;3.42;;;17.20;76.60;;;;;;4806421;29;20420;-70
2023/05/11 15:21:33;;;;;;;10.30;2.92;;;17.20;76.30;;;;;;4803516;29;20535;-71
2023/05/11 15:23:59;;;;;;;8.48;3.22;;;17.20;76.20;;;;;;4807536;29;20090;-79
2023/05/11 15:26:25;;;;;;;10.48;2.95;;;17.10;75.90;;;;;;4807606;29;20059;-80
2023/05/11 15:28:50;;;;;;;10.20;2.75;;;17.20;75.40;;;;;;4791789;29;20459;-77
2023/05/11 15:31:16;;;;;;;15.27;4.03;;;17.20;75.00;;;;;;4793468;29;20055;-81
2023/05/11 15:33:42;;;;;;;12.68;3.20;;;17.10;75.20;;;;;;4795287;29;20061;-73
2023/05/11 15:36:12;;;;;;;11.70;3.15;;;17.20;74.90;;;;;;4809295;29;20047;-73
2023/05/11 15:38:39;;;;;;;13.32;3.10;;;17.10;74.80;;;;;;4803222;29;20483;-72
2023/05/11 15:41:05;;;;;;;21.38;2.97;;;17.10;75.10;;;;;;4801186;29;20093;-72
2023/05/11 15:43:31;;;;;;;13.98;3.28;;;17.10;75.40;;;;;;4802650;29;20051;-72
2023/05/11 15:45:57;;;;;;;12.75;2.70;;;17.10;76.10;;;;;;4808799;29;20043;-71
2023/05/11 15:48:22;;;;;;;20.40;4.05;;;17.10;76.20;;;;;;4811272;29;20051;-72
2023/05/11 15:50:48;;;;;;;9.57;2.55;;;17.10;76.50;;;;;;4811319;29;20133;-72
2023/05/11 15:53:14;;;;;;;14.07;3.20;;;17.20;76.80;;;;;;4810692;29;20598;-72
2023/05/11 15:55:43;;;;;;;19.98;3.45;;;17.10;76.90;;;;;;4811280;29;20043;-72
2023/05/11 15:58:10;;;;;;;21.95;3.13;;;17.10;77.10;;;;;;4810603;29;20064;-72
2023/05/11 16:00:36;;;;;;;15.27;2.88;;;17.10;77.30;;;;;;4811054;29;20059;-78
2023/05/11 16:03:02;;;;;;;13.88;2.97;;;17.10;77.50;;;;;;4810526;29;20046;-78
2023/05/11 16:05:28;;;;;;;20.45;3.55;;;17.10;77.50;;;;;;4795541;29;20392;-78
2023/05/11 16:07:54;;;;;;;23.27;4.13;;;17.10;77.60;;;;;;4794871;29;20055;-79
2023/05/11 16:10:19;;;;;;;22.25;3.88;;;17.10;77.80;;;;;;4795270;29;20058;-78
2023/05/11 16:12:45;;;;;;;19.88;3.42;;;17.10;78.00;;;;;;4810763;29;20055;-79
2023/05/11 16:15:11;;;;;;;23.63;3.33;;;17.10;78.00;;;;;;4794966;29;20127;-78
2023/05/11 16:17:37;;;;;;;29.77;4.38;;;17.10;78.00;;;;;;4810881;29;20123;-77
2023/05/11 16:20:03;;;;;;;40.08;4.93;;;17.10;78.10;;;;;;4810562;29;20086;-81
2023/05/11 16:22:30;;;;;;;24.92;4.82;;;17.20;78.20;;;;;;4794453;29;20051;-78
2023/05/11 16:24:56;;;;;;;29.65;5.00;;;17.20;78.70;;;;;;4810273;29;20097;-78
2023/05/11 16:27:22;;;;;;;21.30;4.88;;;17.20;77.90;;;;;;4810413;29;20061;-78
2023/05/11 16:29:48;;;;;;;33.88;4.78;;;17.20;77.10;;;;;;4810480;29;20051;-75
2023/05/11 16:32:14;;;;;;;18.77;4.47;;;17.20;76.70;;;;;;4794350;29;20074;-77
2023/05/11 16:34:40;;;;;;;14.52;2.88;;;17.20;77.10;;;;;;4809527;29;20089;-77
2023/05/11 16:37:06;;;;;;;21.48;3.90;;;17.20;77.40;;;;;;4810252;29;20042;-77
2023/05/11 16:39:31;;;;;;;23.60;4.20;;;17.20;77.50;;;;;;4794676;29;20131;-75
2023/05/11 16:41:57;;;;;;;24.17;4.38;;;17.20;77.70;;;;;;4810264;29;20519;-74
2023/05/11 16:44:23;;;;;;;27.23;4.10;;;17.20;77.80;;;;;;4809912;29;20042;-75
2023/05/11 16:46:49;;;;;;;35.38;5.07;;;17.20;77.90;;;;;;4810323;29;20366;-75
2023/05/11 19:48:05;;;;;;;6.07;2.10;;;17.00;72.40;;;;;;4758222;30;20071;-73
2023/05/11 19:50:31;;;;;;;5.32;2.13;;;16.90;72.20;;;;;;4751984;30;20383;-71
2023/05/11 19:52:57;;;;;;;2.55;2.05;;;16.90;72.00;;;;;;4755605;30;20055;-72
2023/05/11 19:55:23;;;;;;;2.88;2.38;;;16.80;71.60;;;;;;4749765;30;20210;-72
2023/05/11 19:57:50;;;;;;;3.75;1.73;;;16.80;71.50;;;;;;4763315;30;20063;-72
2023/05/11 20:00:23;;;;;;;2.83;1.85;;;16.80;71.50;;;;;;4753882;30;20475;-71
2023/05/11 20:02:52;;;;;;;3.17;2.20;;;16.80;71.30;;;;;;4754222;30;20106;-72
2023/05/11 20:05:18;;;;;;;3.28;2.00;;;16.80;71.30;;;;;;4771736;30;20058;-72
2023/05/11 20:07:44;;;;;;;3.08;2.08;;;16.70;71.10;;;;;;4771874;30;20143;-71
2023/05/11 20:10:11;;;;;;;4.88;2.00;;;16.70;70.90;;;;;;4771132;30;20205;-70
2023/05/11 20:12:37;;;;;;;3.25;2.00;;;16.70;70.70;;;;;;4753574;30;20052;-70
2023/05/11 20:15:07;;;;;;;3.03;1.80;;;16.70;70.60;;;;;;4737939;30;20459;-70
2023/05/11 20:17:33;;;;;;;3.42;2.35;;;16.70;70.50;;;;;;4767499;30;20064;-70
2023/05/11 20:20:02;;;;;;;2.65;2.38;;;16.60;70.50;;;;;;4756689;30;20604;-70
2023/05/11 20:22:29;;;;;;;4.75;2.60;;;16.60;70.50;;;;;;4757022;30;20063;-70
2023/05/11 20:24:55;;;;;;;6.93;2.55;;;16.60;70.60;;;;;;4754807;30;20051;-70
2023/05/11 20:27:21;;;;;;;7.20;2.35;;;16.60;70.60;;;;;;4745958;30;20052;-70
2023/05/11 20:29:47;;;;;;;5.18;2.50;;;16.60;70.80;;;;;;4755709;30;20488;-70
2023/05/11 20:32:12;;;;;;;3.88;2.50;;;16.60;70.90;;;;;;4756558;30;20121;-72
2023/05/11 20:34:38;;;;;;;2.70;1.98;;;16.60;71.00;;;;;;4754473;30;20439;-72
2023/05/11 20:37:04;;;;;;;4.22;2.20;;;16.60;71.00;;;;;;4755662;30;20135;-70
2023/05/11 20:39:30;;;;;;;2.78;2.20;;;16.60;70.90;;;;;;4759410;30;20060;-71
2023/05/11 20:41:57;;;;;;;3.30;2.10;;;16.60;70.80;;;;;;4745945;30;20052;-70
2023/05/11 20:44:23;;;;;;;4.32;2.10;;;16.60;70.80;;;;;;4751550;30;20052;-70
2023/05/11 20:46:49;;;;;;;3.60;2.10;;;16.60;70.70;;;;;;4747724;30;20059;-70
2023/05/11 20:49:15;;;;;;;4.63;2.60;;;16.50;70.60;;;;;;4755022;30;20183;-70
2023/05/11 20:51:41;;;;;;;5.18;3.17;;;16.60;70.60;;;;;;4755971;30;20055;-70
2023/05/11 20:54:06;;;;;;;6.00;3.53;;;16.50;70.60;;;;;;4755792;30;20048;-70
2023/05/11 20:56:33;;;;;;;4.95;3.20;;;16.50;70.60;;;;;;4755889;30;20060;-70
2023/05/11 20:58:59;;;;;;;4.15;3.72;;;16.50;70.60;;;;;;4741223;30;20055;-70
2023/05/11 21:01:25;;;;;;;4.30;3.90;;;16.50;70.60;;;;;;4752874;30;20372;-70
2023/05/11 21:03:51;;;;;;;5.22;3.90;;;16.50;70.50;;;;;;4755236;30;20354;-72
2023/05/11 21:06:17;;;;;;;3.65;3.05;;;16.50;70.60;;;;;;4755438;30;20055;-70
2023/05/11 21:08:43;;;;;;;3.85;3.00;;;16.50;70.60;;;;;;4755990;30;20183;-70
2023/05/11 21:11:09;;;;;;;5.63;3.00;;;16.50;70.50;;;;;;4754399;30;20113;-69
2023/05/11 21:13:35;;;;;;;3.08;2.45;;;16.50;70.40;;;;;;4755705;30;20048;-70
2023/05/11 21:16:02;;;;;;;2.35;1.90;;;16.50;70.40;;;;;;4755498;30;20060;-69
2023/05/11 21:18:30;;;;;;;2.92;2.17;;;16.50;70.50;;;;;;4755562;30;20131;-71
